ADL weather

Adelaide International Airport
Adelaide, South Australia, Australia

Public forecast

Using degrees Celsius for public forecast. Weather courtesy of forecast.io.

METAR (pilot weather report)

Retrieved 2019/03/22 08:00 UTC (16 minutes ago):

YPAD 220800Z 21009KT CAVOK 24/19 Q1008 NOSIG

TAF (pilot weather forecast)

Retrieved 2019/03/22 06:00 UTC (2 hours ago):

TAF YPAD 220509Z 2206/2312 23012KT CAVOK FM221100 VRB05KT CAVOK FM221600 25006KT 9999 SCT012 FM221900 27005KT 9999 SCT012 BKN015 FM222200 27008KT 9999 BKN020 FM230100 27012KT 9999 BKN025 FM230400 24010KT CAVOK